Time;durP1;ratioP1;P1;durP2;ratioP2;P2;SDS_P1;SDS_P2;PMS_P1;PMS_P2;Temp;Humidity;BMP_temperature;BMP_pressure;BME280_temperature;BME280_humidity;BME280_pressure;Samples;Min_cycle;Max_cycle;Signal;HPM_P1;HPM_P2
2021/04/30 00:00:13;;;;;;;18.95;11.50;;;;;;;11.28;100.00;100147.33;1707107;84;21321;-73
2021/04/30 00:02:41;;;;;;;19.92;11.25;;;;;;;11.26;100.00;100142.12;1685085;84;21726;-72
2021/04/30 00:05:10;;;;;;;16.77;10.28;;;;;;;11.24;100.00;100138.71;1706948;84;21173;-72
2021/04/30 00:07:40;;;;;;;17.87;9.53;;;;;;;11.19;100.00;100133.84;1707084;83;21150;-73
2021/04/30 00:10:10;;;;;;;16.62;9.88;;;;;;;11.14;100.00;100129.97;1706979;83;21182;-72
2021/04/30 00:12:38;;;;;;;23.95;10.82;;;;;;;11.10;100.00;100148.41;1707059;84;21166;-74
2021/04/30 00:15:07;;;;;;;17.65;9.95;;;;;;;11.06;100.00;100144.33;1706662;83;21162;-73
2021/04/30 00:17:36;;;;;;;16.62;9.00;;;;;;;11.03;100.00;100144.70;1696019;84;21191;-73
2021/04/30 00:20:06;;;;;;;17.15;9.28;;;;;;;11.00;100.00;100142.33;1661652;86;21291;-73
2021/04/30 00:22:34;;;;;;;16.30;8.58;;;;;;;10.98;100.00;100143.84;1661740;86;21129;-74
2021/04/30 00:25:03;;;;;;;17.75;9.48;;;;;;;10.95;100.00;100136.06;1661728;86;21157;-72
2021/04/30 00:27:31;;;;;;;13.98;8.80;;;;;;;10.91;100.00;100136.60;1661743;86;21153;-73
2021/04/30 00:29:59;;;;;;;15.68;9.38;;;;;;;10.87;100.00;100138.80;1661691;86;21162;-73
2021/04/30 00:32:28;;;;;;;17.60;9.80;;;;;;;10.85;100.00;100140.80;1661848;86;21176;-72
2021/04/30 00:34:56;;;;;;;19.00;10.00;;;;;;;10.82;100.00;100142.01;1661720;86;21157;-73
2021/04/30 00:37:24;;;;;;;17.92;9.55;;;;;;;10.80;100.00;100139.98;1661934;85;21137;-73
2021/04/30 00:39:53;;;;;;;15.90;9.58;;;;;;;10.77;100.00;100134.07;1661707;86;21184;-72
2021/04/30 00:42:21;;;;;;;17.40;9.33;;;;;;;10.73;100.00;100128.16;1661673;86;21185;-73
2021/04/30 00:44:50;;;;;;;17.20;9.23;;;;;;;10.71;100.00;100136.09;1661887;86;21208;-73
2021/04/30 00:47:29;;;;;;;18.73;9.80;;;;;;;10.68;100.00;100131.01;1661735;86;21168;-73
2021/04/30 00:50:06;;;;;;;18.80;9.43;;;;;;;10.64;100.00;100131.86;1676407;85;21647;-73
2021/04/30 00:52:37;;;;;;;17.73;9.45;;;;;;;10.58;100.00;100136.09;1678666;85;21134;-73
2021/04/30 00:55:12;;;;;;;15.30;8.53;;;;;;;10.55;100.00;100130.17;1678634;84;21189;-72
2021/04/30 00:57:44;;;;;;;16.50;9.25;;;;;;;10.50;100.00;100132.53;1678844;85;21142;-72
2021/04/30 01:00:13;;;;;;;17.30;9.73;;;;;;;10.44;100.00;100129.48;1678831;84;21332;-73
2021/04/30 01:02:41;;;;;;;17.48;9.25;;;;;;;10.39;100.00;100130.52;1678842;85;21197;-73
2021/04/30 01:05:13;;;;;;;18.77;9.98;;;;;;;10.33;100.00;100127.12;1678810;85;21166;-73
2021/04/30 01:07:41;;;;;;;17.30;9.65;;;;;;;10.29;100.00;100127.09;1678738;84;21142;-73
2021/04/30 01:10:11;;;;;;;18.62;9.38;;;;;;;10.24;100.00;100122.18;1678684;85;21126;-73
2021/04/30 01:12:38;;;;;;;18.27;9.45;;;;;;;10.22;100.00;100118.80;1678842;85;21186;-72
2021/04/30 01:15:08;;;;;;;15.87;8.90;;;;;;;10.20;100.00;100117.30;1678801;84;21122;-73
2021/04/30 01:17:36;;;;;;;16.97;9.38;;;;;;;10.17;100.00;100114.92;1685436;84;21182;-73
2021/04/30 01:20:06;;;;;;;16.93;9.23;;;;;;;10.14;100.00;100113.89;1706995;84;21300;-74
2021/04/30 01:22:43;;;;;;;17.73;9.45;;;;;;;10.10;100.00;100116.08;1760515;81;21142;-73
2021/04/30 01:25:17;;;;;;;19.30;10.07;;;;;;;10.04;100.00;100118.95;1763785;81;21099;-73
2021/04/30 01:27:45;;;;;;;18.20;9.87;;;;;;;10.01;100.00;100115.73;1764235;80;21130;-73
2021/04/30 01:30:20;;;;;;;18.07;9.70;;;;;;;9.98;100.00;100114.70;1764189;81;21575;-73
2021/04/30 01:32:48;;;;;;;20.07;10.53;;;;;;;9.92;100.00;100116.73;1763162;81;21575;-72
2021/04/30 01:35:31;;;;;;;21.13;10.83;;;;;;;9.87;100.00;100107.25;1764239;80;21295;-73
2021/04/30 01:38:00;;;;;;;17.48;10.25;;;;;;;9.82;100.00;100100.66;1764345;81;21126;-73
2021/04/30 01:40:32;;;;;;;20.17;11.17;;;;;;;9.78;100.00;100100.66;1763960;81;21114;-72
2021/04/30 01:43:05;;;;;;;22.00;11.13;;;;;;;9.74;100.00;100107.37;1763905;81;21133;-72
2021/04/30 01:45:39;;;;;;;20.62;10.82;;;;;;;9.71;100.00;100113.95;1764254;81;21710;-73
2021/04/30 01:48:14;;;;;;;20.10;11.43;;;;;;;9.69;100.00;100114.63;1764157;80;21158;-73
2021/04/30 01:50:44;;;;;;;21.53;10.80;;;;;;;9.65;100.00;100112.77;1776608;80;21130;-72
2021/04/30 01:53:14;;;;;;;20.80;11.27;;;;;;;9.62;100.00;100119.00;1772410;80;21635;-73
2021/04/30 01:55:42;;;;;;;20.00;11.17;;;;;;;9.59;100.00;100122.02;1772708;80;21553;-73
2021/04/30 01:58:10;;;;;;;19.87;10.93;;;;;;;9.56;100.00;100122.33;1772267;81;21173;-73
2021/04/30 02:00:38;;;;;;;22.03;11.30;;;;;;;9.55;100.00;100117.44;1772428;81;21295;-73
2021/04/30 02:03:06;;;;;;;19.13;11.37;;;;;;;9.53;100.00;100117.28;1772288;81;21138;-73
2021/04/30 02:05:34;;;;;;;21.23;12.27;;;;;;;9.50;100.00;100117.91;1772432;81;21622;-73
2021/04/30 02:08:05;;;;;;;19.67;11.77;;;;;;;9.48;100.00;100124.50;1772398;81;21318;-72
2021/04/30 02:10:33;;;;;;;19.77;11.13;;;;;;;9.43;100.00;100122.78;1726747;83;21228;-71
2021/04/30 02:13:02;;;;;;;21.33;12.23;;;;;;;9.40;100.00;100123.09;1702476;83;21321;-72
2021/04/30 02:15:39;;;;;;;20.83;11.70;;;;;;;9.38;100.00;100120.56;1726799;83;21755;-72
2021/04/30 02:18:08;;;;;;;19.93;11.43;;;;;;;9.36;100.00;100117.18;1726762;83;21163;-72
2021/04/30 02:20:36;;;;;;;22.27;12.60;;;;;;;9.34;100.00;100125.11;1726713;83;21321;-73
2021/04/30 02:23:03;;;;;;;20.23;11.50;;;;;;;9.33;100.00;100124.27;1726753;83;21151;-73
2021/04/30 02:25:31;;;;;;;21.03;12.03;;;;;;;9.34;100.00;100117.84;1726717;82;21318;-73
2021/04/30 02:28:00;;;;;;;22.33;12.33;;;;;;;9.32;100.00;100125.27;1726946;83;21167;-74
2021/04/30 02:30:30;;;;;;;21.67;12.27;;;;;;;9.33;100.00;100120.70;1726751;83;21184;-73
2021/04/30 02:32:58;;;;;;;19.70;12.20;;;;;;;9.35;100.00;100126.78;1726795;83;21553;-72
2021/04/30 02:35:36;;;;;;;22.27;11.97;;;;;;;9.37;100.00;100124.28;1726707;83;21553;-73
2021/04/30 02:38:06;;;;;;;24.00;12.70;;;;;;;9.38;100.00;100117.86;1726612;83;21308;-73
2021/04/30 02:40:35;;;;;;;28.30;13.07;;;;;;;9.40;100.00;100112.30;1726763;83;21771;-74
2021/04/30 02:43:07;;;;;;;24.87;12.30;;;;;;;9.42;100.00;100107.59;1726938;83;21597;-73
2021/04/30 02:45:42;;;;;;;22.00;12.20;;;;;;;9.50;100.00;100103.58;1815069;77;23067;-71
2021/04/30 02:48:15;;;;;;;20.03;11.43;;;;;;;9.53;100.00;100109.17;1786716;80;21306;-73
2021/04/30 02:50:44;;;;;;;21.97;11.97;;;;;;;9.60;100.00;100111.56;1787145;80;21125;-73
2021/04/30 02:53:12;;;;;;;20.20;11.50;;;;;;;9.66;100.00;100110.90;1786827;80;21125;-72
2021/04/30 02:55:40;;;;;;;23.37;12.50;;;;;;;9.72;100.00;100106.21;1786590;80;21283;-73
2021/04/30 02:58:09;;;;;;;20.77;11.97;;;;;;;9.80;100.00;100108.08;1786744;80;21145;-73
2021/04/30 03:00:37;;;;;;;20.90;11.23;;;;;;;9.88;100.00;100113.52;1756755;80;21137;-73
2021/04/30 03:03:05;;;;;;;23.03;12.07;;;;;;;9.97;100.00;100115.22;1786706;80;21286;-73
2021/04/30 03:05:33;;;;;;;19.10;10.53;;;;;;;10.04;100.00;100116.77;1786638;80;21161;-72
2021/04/30 03:08:02;;;;;;;18.27;10.10;;;;;;;10.14;100.00;100114.73;1786784;80;21282;-73
2021/04/30 03:10:30;;;;;;;21.33;10.57;;;;;;;10.23;100.00;100115.11;1786689;80;21543;-71
2021/04/30 03:12:58;;;;;;;22.10;10.08;;;;;;;10.29;100.00;100109.53;1786765;80;21150;-73
2021/04/30 03:15:27;;;;;;;16.77;9.30;;;;;;;10.37;100.00;100104.66;1786957;80;21169;-71
2021/04/30 03:17:56;;;;;;;18.87;9.00;;;;;;;10.43;100.00;100098.08;1786700;80;21291;-72
2021/04/30 03:20:25;;;;;;;16.30;8.97;;;;;;;10.51;100.00;100099.09;1786299;80;21172;-72
2021/04/30 03:22:52;;;;;;;16.17;8.13;;;;;;;10.58;100.00;100094.69;1786201;80;21282;-72
2021/04/30 03:25:20;;;;;;;13.15;7.97;;;;;;;10.66;100.00;100093.83;1786387;80;22245;-72
2021/04/30 03:27:49;;;;;;;15.97;8.30;;;;;;;10.72;100.00;100097.22;1785963;80;21148;-73
2021/04/30 03:30:19;;;;;;;16.40;8.78;;;;;;;10.78;100.00;100101.94;1786607;80;21573;-73
2021/04/30 03:32:47;;;;;;;17.98;9.33;;;;;;;10.84;100.00;100108.03;1786692;79;21149;-74
2021/04/30 03:35:18;;;;;;;18.70;8.35;;;;;;;10.90;100.00;100098.37;1786771;80;21121;-74
2021/04/30 03:37:47;;;;;;;14.38;7.78;;;;;;;10.95;100.00;100098.70;1786917;80;21576;-72
2021/04/30 03:40:16;;;;;;;16.80;7.92;;;;;;;11.02;100.00;100095.65;1786851;80;21564;-72
2021/04/30 03:42:44;;;;;;;15.25;7.65;;;;;;;11.09;100.00;100102.58;1786851;80;21156;-72
2021/04/30 03:45:14;;;;;;;15.13;7.70;;;;;;;11.12;100.00;100103.56;1787180;80;21295;-71
2021/04/30 03:47:42;;;;;;;14.25;7.92;;;;;;;11.18;100.00;100105.07;1787491;80;21299;-71
2021/04/30 03:50:11;;;;;;;17.75;7.70;;;;;;;11.21;100.00;100111.50;1787481;80;21140;-72
2021/04/30 03:52:38;;;;;;;18.30;8.43;;;;;;;11.25;100.00;100116.05;1787525;80;21152;-71
2021/04/30 03:55:07;;;;;;;19.52;8.98;;;;;;;11.27;100.00;100111.83;1787478;80;21125;-72
2021/04/30 03:57:35;;;;;;;15.95;8.13;;;;;;;11.28;100.00;100121.13;1786861;80;21165;-72
2021/04/30 04:00:06;;;;;;;17.42;8.23;;;;;;;11.30;100.00;100118.25;1787278;80;21137;-71
2021/04/30 04:02:35;;;;;;;15.75;7.50;;;;;;;11.32;100.00;100117.56;1783201;80;21306;-72
2021/04/30 04:05:05;;;;;;;14.95;7.67;;;;;;;11.32;100.00;100115.69;1787169;80;21555;-72
2021/04/30 04:07:34;;;;;;;17.35;7.85;;;;;;;11.35;100.00;100120.77;1786937;80;21168;-73
2021/04/30 04:10:02;;;;;;;18.40;8.80;;;;;;;11.39;100.00;100117.20;1786913;80;21120;-74
2021/04/30 04:12:30;;;;;;;17.27;9.33;;;;;;;11.43;100.00;100116.34;1787294;80;21142;-72
2021/04/30 04:14:59;;;;;;;21.17;8.93;;;;;;;11.48;100.00;100116.66;1786938;80;21176;-72
2021/04/30 04:17:27;;;;;;;20.77;9.30;;;;;;;11.51;100.00;100109.52;1786657;80;21129;-73
2021/04/30 04:19:55;;;;;;;20.50;9.15;;;;;;;11.57;100.00;100117.80;1785258;80;21335;-71
2021/04/30 04:22:24;;;;;;;21.77;9.23;;;;;;;11.59;100.00;100110.33;1785143;80;21157;-72
2021/04/30 04:24:52;;;;;;;19.40;8.80;;;;;;;11.62;100.00;100113.22;1785258;80;21161;-75
2021/04/30 04:27:22;;;;;;;20.43;10.05;;;;;;;11.66;100.00;100124.02;1785029;80;21130;-74
2021/04/30 04:29:50;;;;;;;23.27;10.03;;;;;;;11.71;100.00;100127.56;1785131;80;21299;-74
2021/04/30 04:32:18;;;;;;;20.12;9.10;;;;;;;11.75;100.00;100126.19;1785064;80;21142;-72
2021/04/30 04:34:46;;;;;;;21.48;10.25;;;;;;;11.82;100.00;100136.64;1785102;80;21318;-73
2021/04/30 04:37:14;;;;;;;16.82;9.03;;;;;;;11.87;100.00;100126.64;1785427;80;21689;-73
2021/04/30 04:39:42;;;;;;;16.35;8.98;;;;;;;11.95;100.00;100125.25;1715922;83;21181;-73
2021/04/30 04:42:10;;;;;;;20.32;9.55;;;;;;;11.99;100.00;100125.74;1785098;80;21109;-72
2021/04/30 04:44:39;;;;;;;23.45;10.00;;;;;;;12.03;100.00;100125.73;1783200;80;21284;-70
2021/04/30 04:47:07;;;;;;;15.55;8.93;;;;;;;12.07;100.00;100125.19;1779102;80;21283;-71
2021/04/30 04:49:35;;;;;;;20.37;9.18;;;;;;;12.11;100.00;100125.67;1779235;81;21675;-69
2021/04/30 04:52:04;;;;;;;17.80;9.28;;;;;;;12.15;100.00;100125.15;1712863;83;21141;-69
2021/04/30 04:54:33;;;;;;;39.45;23.90;;;;;;;12.23;100.00;100124.23;1712744;84;21332;-68
2021/04/30 04:57:01;;;;;;;19.30;9.68;;;;;;;12.28;100.00;100118.29;1779244;81;21130;-70
2021/04/30 04:59:29;;;;;;;140.90;115.88;;;;;;;12.34;100.00;100121.13;1775309;80;21208;-70
2021/04/30 05:01:57;;;;;;;41.18;26.95;;;;;;;12.38;100.00;100113.97;1772210;80;21112;-70
2021/04/30 05:04:25;;;;;;;37.05;25.90;;;;;;;12.47;100.00;100119.16;1780104;80;21149;-68
2021/04/30 05:06:53;;;;;;;24.82;13.53;;;;;;;12.62;100.00;100120.55;1780586;80;21133;-70
2021/04/30 05:09:23;;;;;;;21.50;11.90;;;;;;;12.71;100.00;100112.70;1780775;80;21141;-75
2021/04/30 05:11:50;;;;;;;22.98;9.93;;;;;;;12.78;100.00;100107.36;1744114;82;21578;-71
2021/04/30 05:14:19;;;;;;;35.63;25.77;;;;;;;12.89;100.00;100116.42;1730751;83;21148;-68
2021/04/30 05:16:49;;;;;;;26.00;17.57;;;;;;;13.02;100.00;100108.16;1739842;82;21736;-71
2021/04/30 05:19:17;;;;;;;25.40;10.40;;;;;;;13.18;100.00;100099.84;1703642;83;21298;-68
2021/04/30 05:21:46;;;;;;;19.70;9.60;;;;;;;13.34;100.00;100094.77;1741883;82;21316;-73
2021/04/30 05:24:14;;;;;;;17.40;8.85;;;;;;;13.47;100.00;100104.97;1741879;81;21181;-68
2021/04/30 05:26:43;;;;;;;17.80;9.03;;;;;;;13.65;100.00;100096.41;1790583;79;21694;-69
2021/04/30 05:29:12;;;;;;;20.70;10.50;;;;;;;13.84;100.00;100104.49;1736173;82;21898;-69
2021/04/30 05:31:40;;;;;;;21.80;11.48;;;;;;;14.03;100.00;100103.88;1803993;79;21122;-69
2021/04/30 05:34:10;;;;;;;24.65;13.75;;;;;;;14.18;100.00;100096.19;1804312;79;21303;-69
2021/04/30 05:36:38;;;;;;;31.40;11.10;;;;;;;14.33;100.00;100096.14;1736817;82;21567;-69
2021/04/30 05:39:07;;;;;;;15.90;7.65;;;;;;;14.52;100.00;100098.21;1745137;79;21283;-70
2021/04/30 05:41:35;;;;;;;17.25;8.43;;;;;;;14.69;100.00;100095.23;1741935;82;21137;-69
2021/04/30 05:44:04;;;;;;;21.52;9.05;;;;;;;14.81;100.00;100095.85;1741898;82;21190;-69
2021/04/30 05:46:32;;;;;;;16.82;7.90;;;;;;;14.99;100.00;100094.00;1744651;82;21125;-70
2021/04/30 05:49:00;;;;;;;16.17;7.92;;;;;;;15.16;100.00;100090.45;1745282;81;21152;-68
2021/04/30 05:51:30;;;;;;;18.17;8.63;;;;;;;15.33;100.00;100094.20;1741350;82;21149;-68
2021/04/30 05:53:58;;;;;;;24.45;8.70;;;;;;;15.44;100.00;100088.22;1723964;83;21151;-68
2021/04/30 05:56:28;;;;;;;20.32;9.00;;;;;;;15.64;100.00;100082.84;1727095;81;21164;-69
2021/04/30 05:58:56;;;;;;;13.93;7.25;;;;;;;15.88;100.00;100077.92;1733019;83;21168;-71
2021/04/30 06:01:24;;;;;;;18.60;8.38;;;;;;;16.09;100.00;100076.41;1730619;83;21175;-69
2021/04/30 06:03:52;;;;;;;21.33;7.17;;;;;;;16.18;100.00;100067.50;1745236;82;21144;-71
2021/04/30 06:06:21;;;;;;;13.05;6.60;;;;;;;16.36;100.00;100070.16;1757703;79;21531;-71
2021/04/30 06:08:49;;;;;;;14.60;7.37;;;;;;;16.36;100.00;100070.16;1775711;81;21546;-70
2021/04/30 06:11:16;;;;;;;13.62;6.87;;;;;;;16.38;100.00;100066.69;1775898;81;21291;-69
2021/04/30 06:13:45;;;;;;;14.13;7.15;;;;;;;16.39;100.00;100077.94;1764836;81;21565;-69
2021/04/30 06:16:13;;;;;;;21.37;12.88;;;;;;;16.48;100.00;100073.45;1744890;82;21149;-70
2021/04/30 06:18:41;;;;;;;16.37;7.40;;;;;;;16.69;100.00;100066.91;1728978;83;21172;-70
2021/04/30 06:21:10;;;;;;;18.32;7.60;;;;;;;16.86;100.00;100067.90;1720763;83;21175;-69
2021/04/30 06:23:38;;;;;;;16.12;7.20;;;;;;;16.96;100.00;100064.19;1737535;82;21322;-71
2021/04/30 06:26:06;;;;;;;16.82;9.35;;;;;;;17.05;100.00;100070.27;1727273;83;21148;-71
2021/04/30 06:28:34;;;;;;;60.35;49.03;;;;;;;17.14;100.00;100074.98;1722486;83;21193;-71
2021/04/30 06:31:02;;;;;;;48.75;39.25;;;;;;;17.21;100.00;100065.73;1719460;83;21351;-72
2021/04/30 06:33:31;;;;;;;19.20;10.43;;;;;;;17.35;100.00;100068.41;1732743;83;21481;-71
2021/04/30 06:35:59;;;;;;;25.65;13.62;;;;;;;17.60;100.00;100065.29;1732418;83;21211;-70
2021/04/30 06:38:27;;;;;;;45.30;31.95;;;;;;;17.94;100.00;100069.27;1731729;83;21247;-72
2021/04/30 06:40:56;;;;;;;19.12;11.28;;;;;;;18.21;100.00;100063.92;1724347;83;21200;-77
2021/04/30 06:43:24;;;;;;;17.60;7.90;;;;;;;18.33;100.00;100064.61;1706024;83;21185;-74
2021/04/30 06:45:52;;;;;;;17.52;7.53;;;;;;;18.16;100.00;100071.13;1697769;83;21334;-72
2021/04/30 06:48:19;;;;;;;13.40;6.87;;;;;;;17.99;100.00;100068.09;1676416;84;21294;-72
2021/04/30 06:50:47;;;;;;;18.20;6.95;;;;;;;18.04;100.00;100068.24;1759350;81;21106;-71
2021/04/30 06:53:15;;;;;;;12.90;6.72;;;;;;;18.30;100.00;100065.88;1766801;81;21121;-72
2021/04/30 06:55:43;;;;;;;11.75;6.58;;;;;;;18.60;100.00;100069.34;1686567;83;21280;-71
2021/04/30 06:58:10;;;;;;;13.62;6.20;;;;;;;18.74;100.00;100067.33;1756772;81;21126;-70
2021/04/30 07:00:38;;;;;;;12.80;7.05;;;;;;;18.94;100.00;100080.87;1769913;81;21275;-73
2021/04/30 07:03:06;;;;;;;15.75;7.37;;;;;;;19.04;100.00;100072.98;1748849;81;21121;-70
2021/04/30 07:05:37;;;;;;;15.05;7.62;;;;;;;19.04;100.00;100069.41;1741336;81;21754;-70
2021/04/30 07:08:05;;;;;;;14.15;7.28;;;;;;;19.04;100.00;100072.16;1741773;81;21750;-70
2021/04/30 07:10:34;;;;;;;11.93;6.20;;;;;;;19.10;100.00;100068.49;1760179;81;21141;-69
2021/04/30 07:13:12;;;;;;;14.20;6.50;;;;;;;19.06;100.00;100069.48;1764510;81;21150;-69
2021/04/30 07:15:40;;;;;;;17.40;6.12;;;;;;;19.03;100.00;100072.66;1731843;83;21555;-70
2021/04/30 07:18:08;;;;;;;11.63;5.95;;;;;;;18.99;100.00;100070.08;1719230;83;21165;-75
2021/04/30 07:20:36;;;;;;;19.52;9.90;;;;;;;19.20;100.00;100064.70;1711406;83;21216;-70
2021/04/30 07:23:04;;;;;;;20.37;8.65;;;;;;;19.30;100.00;100060.91;1712647;83;21180;-71
2021/04/30 07:25:33;;;;;;;10.68;6.03;;;;;;;19.61;100.00;100054.94;1713125;83;21311;-70
2021/04/30 07:28:01;;;;;;;16.85;5.78;;;;;;;20.00;100.00;100053.30;1754442;82;21298;-71
2021/04/30 07:30:31;;;;;;;13.78;5.45;;;;;;;20.32;100.00;100051.67;1754519;81;21101;-69
2021/04/30 07:32:59;;;;;;;13.53;6.15;;;;;;;20.56;100.00;100049.82;1754654;82;21314;-70
2021/04/30 07:35:28;;;;;;;12.90;6.30;;;;;;;20.69;100.00;100048.24;1735537;81;21145;-70
2021/04/30 07:37:56;;;;;;;10.03;5.67;;;;;;;20.82;100.00;100050.77;1742041;81;21102;-71
2021/04/30 07:40:24;;;;;;;12.60;5.97;;;;;;;20.89;100.00;100055.30;1767080;81;21201;-71
2021/04/30 07:42:52;;;;;;;12.15;6.53;;;;;;;20.79;100.00;100046.29;1767140;81;21146;-70
2021/04/30 07:45:20;;;;;;;17.80;6.35;;;;;;;20.53;100.00;100041.50;1772082;80;21176;-74
2021/04/30 07:47:48;;;;;;;19.15;10.15;;;;;;;20.36;100.00;100038.62;1772433;81;21671;-70
2021/04/30 07:50:16;;;;;;;11.73;6.08;;;;;;;20.05;100.00;100052.08;1755109;81;21098;-71
2021/04/30 07:52:45;;;;;;;10.60;6.92;;;;;;;19.48;100.00;100053.20;1743713;81;21149;-71
2021/04/30 07:55:12;;;;;;;12.73;6.22;;;;;;;18.93;100.00;100044.97;1767654;81;21146;-70
2021/04/30 07:57:41;;;;;;;15.32;5.97;;;;;;;18.61;100.00;100045.02;1755501;81;21695;-70
2021/04/30 08:00:12;;;;;;;11.05;5.35;;;;;;;18.74;100.00;100046.79;1741384;82;21295;-72
2021/04/30 08:02:40;;;;;;;9.88;5.60;;;;;;;18.95;100.00;100039.55;1691359;84;21286;-70
2021/04/30 08:05:09;;;;;;;16.57;8.35;;;;;;;19.26;100.00;100039.11;1759227;81;21527;-72
2021/04/30 08:07:38;;;;;;;10.93;5.42;;;;;;;19.51;100.00;100036.30;1761753;80;21312;-72
2021/04/30 08:10:06;;;;;;;14.83;5.30;;;;;;;19.68;100.00;100030.17;1767174;80;21539;-73
2021/04/30 08:12:34;;;;;;;8.33;5.40;;;;;;;19.88;100.00;100028.55;1742123;82;21312;-74
2021/04/30 08:15:02;;;;;;;11.15;5.10;;;;;;;20.03;100.00;100018.00;1670331;84;21148;-74
2021/04/30 08:17:30;;;;;;;22.37;10.58;;;;;;;20.20;100.00;100018.69;1747925;81;21129;-72
2021/04/30 08:19:59;;;;;;;7.90;4.90;;;;;;;20.44;100.00;100019.03;1772563;81;21275;-73
2021/04/30 08:22:28;;;;;;;6.15;4.58;;;;;;;20.67;100.00;100014.68;1772519;81;21596;-72
2021/04/30 08:24:55;;;;;;;12.63;5.25;;;;;;;20.71;100.00;100000.75;1769197;81;21275;-71
2021/04/30 08:27:23;;;;;;;13.93;5.10;;;;;;;20.73;100.00;99997.23;1741845;82;21181;-72
2021/04/30 08:29:51;;;;;;;8.33;4.75;;;;;;;20.84;100.00;99992.80;1742457;82;21145;-73
2021/04/30 08:32:20;;;;;;;11.97;6.65;;;;;;;20.93;100.00;100001.52;1742770;82;21133;-71
2021/04/30 08:34:48;;;;;;;10.70;5.60;;;;;;;20.91;100.00;99989.94;1742569;81;21745;-71
2021/04/30 08:37:16;;;;;;;11.38;5.50;;;;;;;20.66;100.00;99991.02;1744431;81;21149;-71
2021/04/30 08:39:44;;;;;;;9.48;4.45;;;;;;;20.52;100.00;99979.94;1757814;82;21179;-71
2021/04/30 08:42:14;;;;;;;12.53;4.92;;;;;;;20.77;100.00;99982.47;1720576;83;21208;-70
2021/04/30 08:44:42;;;;;;;20.30;5.85;;;;;;;21.21;100.00;99981.00;1745918;81;21106;-72
2021/04/30 08:47:18;;;;;;;13.10;5.00;;;;;;;21.67;100.00;99974.77;1777844;80;21255;-70
2021/04/30 08:49:47;;;;;;;31.17;7.75;;;;;;;21.75;100.00;99971.08;1777604;80;21154;-73
2021/04/30 08:52:19;;;;;;;47.30;9.88;;;;;;;21.60;100.00;99966.12;1756507;82;21209;-70
2021/04/30 08:54:50;;;;;;;9.18;4.70;;;;;;;21.51;100.00;99962.63;1756673;82;21170;-70
2021/04/30 08:57:23;;;;;;;11.65;4.90;;;;;;;21.61;99.41;99958.70;1774515;80;21682;-72
2021/04/30 08:59:47;;;;;;;18.65;10.82;;;;;;;21.74;98.83;99954.81;1776590;80;21133;-72
2021/04/30 09:02:15;;;;;;;27.00;17.15;;;;;;;21.89;99.84;99952.34;1756340;80;21292;-73
2021/04/30 09:04:44;;;;;;;11.80;4.87;;;;;;;22.11;99.63;99956.56;1775816;80;21357;-71
2021/04/30 09:07:15;;;;;;;5.78;4.62;;;;;;;22.40;96.94;99956.53;1787644;80;21125;-70
2021/04/30 09:10:05;;;;;;;14.90;6.97;;;;;;;22.55;91.63;99954.55;1715182;83;21318;-71
2021/04/30 09:12:41;;;;;;;15.95;5.17;;;;;;;22.28;94.82;99939.27;1815854;77;22948;-69
2021/04/30 09:15:21;;;;;;;14.78;4.70;;;;;;;22.09;95.60;99940.02;1787893;80;21665;-71
2021/04/30 09:17:49;;;;;;;8.13;4.70;;;;;;;21.95;94.58;99945.00;1788140;79;21101;-72
2021/04/30 09:20:17;;;;;;;6.92;4.15;;;;;;;21.62;97.78;99938.38;1760374;80;21278;-72
2021/04/30 09:22:45;;;;;;;11.28;4.33;;;;;;;21.35;99.96;99941.66;1787700;80;21121;-73
2021/04/30 09:25:18;;;;;;;5.90;4.22;;;;;;;21.35;100.00;99932.03;1784080;79;21213;-74
2021/04/30 09:27:48;;;;;;;13.10;4.85;;;;;;;21.50;100.00;99930.16;1757170;81;21097;-75
2021/04/30 09:30:27;;;;;;;13.62;5.50;;;;;;;21.71;100.00;99926.40;1776697;79;21294;-74
2021/04/30 09:33:16;;;;;;;14.03;5.25;;;;;;;21.70;98.36;99935.76;1787840;80;21137;-73
2021/04/30 09:35:55;;;;;;;8.68;4.10;;;;;;;21.45;100.00;99934.16;1788113;80;21276;-73
2021/04/30 09:38:32;;;;;;;9.70;4.67;;;;;;;21.19;100.00;99930.06;1760979;80;21163;-73
2021/04/30 09:41:09;;;;;;;9.95;4.25;;;;;;;21.28;100.00;99927.77;1774508;80;21121;-74
2021/04/30 09:43:51;;;;;;;12.95;4.70;;;;;;;21.70;100.00;99922.00;1778946;80;21137;-73
2021/04/30 09:46:35;;;;;;;7.97;3.87;;;;;;;22.11;100.00;99919.95;1786280;80;21168;-72
2021/04/30 09:49:07;;;;;;;13.70;5.45;;;;;;;22.50;100.00;99918.66;1763192;80;21148;-74
2021/04/30 09:51:53;;;;;;;12.05;4.37;;;;;;;22.69;96.05;99910.94;1772818;80;21543;-73
2021/04/30 09:54:29;;;;;;;15.32;4.85;;;;;;;22.55;93.39;99912.67;1756737;80;21163;-72
2021/04/30 09:57:18;;;;;;;15.70;5.22;;;;;;;22.26;95.11;99920.20;1751684;81;21120;-73
2021/04/30 10:00:11;;;;;;;13.80;5.70;;;;;;;22.05;96.38;99919.58;1766966;80;21145;-70
2021/04/30 10:02:52;;;;;;;11.78;4.70;;;;;;;21.87;100.00;99909.10;1787408;77;23423;-74
2021/04/30 10:07:59;;;;;;;15.88;5.67;;;;;;;21.65;100.00;99897.97;1847682;77;23013;-77
2021/04/30 10:10:27;;;;;;;8.50;4.28;;;;;;;21.59;100.00;99909.42;1801183;78;21286;-74
2021/04/30 10:12:57;;;;;;;10.90;4.20;;;;;;;21.42;100.00;99910.75;1795303;80;21278;-73
2021/04/30 10:15:25;;;;;;;12.15;5.33;;;;;;;21.29;100.00;99901.95;1830478;78;21094;-71
2021/04/30 10:17:58;;;;;;;11.90;6.15;;;;;;;21.17;100.00;99906.93;1831257;78;21118;-77
2021/04/30 10:20:26;;;;;;;23.45;14.30;;;;;;;21.18;100.00;99902.29;1824785;78;21152;-72
2021/04/30 10:22:57;;;;;;;16.00;8.25;;;;;;;21.26;100.00;99900.51;1822028;79;21089;-71
2021/04/30 10:25:26;;;;;;;8.58;5.42;;;;;;;21.60;100.00;99898.73;1830073;77;21124;-71
2021/04/30 10:27:54;;;;;;;11.83;5.00;;;;;;;21.95;99.21;99900.96;1799726;77;21137;-72
2021/04/30 10:30:48;;;;;;;9.35;4.50;;;;;;;21.86;97.80;99899.71;1784638;80;21217;-72
2021/04/30 10:33:32;;;;;;;15.98;4.30;;;;;;;21.63;98.76;99893.25;1691967;85;21178;-72
2021/04/30 10:36:13;;;;;;;8.18;4.33;;;;;;;21.57;99.49;99887.38;1691928;85;21202;-72
2021/04/30 10:38:53;;;;;;;12.47;4.25;;;;;;;21.91;99.64;99890.99;1843844;76;21232;-76
2021/04/30 10:41:39;;;;;;;13.08;4.47;;;;;;;21.98;97.25;99889.45;1715457;83;21166;-73
2021/04/30 10:44:17;;;;;;;10.93;3.85;;;;;;;21.85;94.80;99892.00;1715884;83;21216;-75
2021/04/30 10:47:14;;;;;;;13.10;4.65;;;;;;;21.87;97.35;99875.22;1811769;77;22388;-75
2021/04/30 10:49:43;;;;;;;10.30;3.85;;;;;;;22.08;96.73;99884.13;1695883;81;21414;-76
2021/04/30 10:52:22;;;;;;;15.08;7.72;;;;;;;22.14;93.93;99886.41;1686621;82;21290;-74
2021/04/30 10:55:04;;;;;;;15.38;6.47;;;;;;;22.19;94.31;99875.48;1720478;82;21160;-70
2021/04/30 10:57:59;;;;;;;14.20;4.62;;;;;;;22.35;92.86;99870.52;1683427;84;21229;-71
2021/04/30 11:00:40;;;;;;;8.95;4.20;;;;;;;22.56;89.70;99872.20;1708961;83;21160;-73
2021/04/30 11:03:20;;;;;;;9.90;4.65;;;;;;;22.51;89.84;99872.95;1701192;83;21603;-73
2021/04/30 11:06:00;;;;;;;8.88;4.28;;;;;;;22.52;90.21;99869.64;1699914;83;21195;-71
2021/04/30 11:08:54;;;;;;;14.40;4.12;;;;;;;22.80;95.14;99861.75;1814491;77;23105;-74
2021/04/30 11:11:34;;;;;;;11.03;4.10;;;;;;;23.25;87.34;99863.98;1784842;80;21568;-73
2021/04/30 11:14:29;;;;;;;8.75;4.40;;;;;;;23.27;82.36;99853.52;1688042;85;21356;-73
2021/04/30 11:16:59;;;;;;;10.43;4.87;;;;;;;22.89;83.56;99853.31;1704996;83;21348;-73
2021/04/30 11:19:30;;;;;;;14.70;4.80;;;;;;;22.58;85.24;99857.61;1695942;83;21251;-71
2021/04/30 11:22:13;;;;;;;12.53;5.00;;;;;;;22.56;87.09;99856.48;1702079;83;21211;-78
2021/04/30 11:24:45;;;;;;;24.07;15.63;;;;;;;22.63;84.85;99848.56;1702621;83;21219;-73
2021/04/30 11:27:29;;;;;;;17.50;6.83;;;;;;;22.46;85.77;99839.81;1832481;77;22888;-74
2021/04/30 11:30:17;;;;;;;13.18;6.62;;;;;;;22.33;89.78;99834.69;1777441;80;21132;-75